Audubon, Iowa
Current Conditions -  °F | °C
As of 7:15 PM on Friday 19 Dec 2014 (Local Time) from KADU Reporting Station
Haze Haze  
Wind Chill: 23°   Ceiling: 500
Heat Index: 30°   Visibility: 4mi
Dew Point: 25°   Wind: 7mph
Humidity: 80%   Direction: 190°S
Pressure: 30.17"   Gusts: NA
Location:  41.72°N, 94.93°W
Report Text: KADU 200115Z AUTO 19006KT 4SM HZ OVC005 M01/M04 A3017 RMK AO2
Loading
Personal Weather Stations






























Interactive Weather Map New forecast layout! Learn more

10-Day Weather Forecast

Advertisements
Track Severe Weather on mobile